Hauptseite
METAR-TAF:

METAR-TAF

Flughäfen :

RAF Benson

Benson, England

Breite: 51-37N, Länge: 001-05W, Höhe: 63 m

Beobachtung

Neuester Wetterbericht von vor 33 Minuten, um 15:50 UTC
Wind 9 kt aus Süd
Temperatur 27°C
Luftfeuchtigkeit 30%
Luftdruck 1012 hPa
Sichtweite 10 km oder mehr
keine Wolken unter 1500 m und keine Kumulonimbus oder Gewitterwolken

METAR: EGUB 161550Z 19009KT CAVOK 27/08 Q1012 BLU NOSIG

Zeit: 17:23 (16:23 UTC)

Prognose

Neuester Wetterbericht von vor 2 Stunden und 36 Minuten, um 13:47 UTC
Gültige Prognose vom 16 um 15 UTC bis 16 um 24 UTC
Wind 7 kt aus West/Südwest
Sichtweite 10 km oder mehr
keine Wolken unter 1500 m und keine Kumulonimbus oder Gewitterwolken

TAF: EGUB 161347Z 1615/1624 25007KT CAVOK

Wetterbeobachtungen und Prognosen von mehr als 4000 Flughäfen (METAR und TAF Bericht).

Die verfügbaren Stationen werden durch gelbe und rote Markierungen auf der Karte dargestellt.

Führen Sie die Maus auf sie, um den Namen der Station zu sehen.

Darauf klicken, um die Beobachtung von Wetterbeobachtungen und Prognosen zu sehen.

Um die Karte zu ändern : klicken Sie auf den grünen Tasten mit einem schwarzen Kreuz Zum Vergrößern, auf den grünen Button mit einem Gedankenstrich zu verkleinern, oder auf die grünen Pfeile für benachbarte Karten.


METAR-TAF: